createdAt,value
2018-09-02T00:01:44.254Z,11.35
2018-09-02T00:04:13.551Z,11.18
2018-09-02T00:06:42.812Z,11.13
2018-09-02T00:09:12.079Z,11.18
2018-09-02T00:11:41.305Z,11.22
2018-09-02T00:14:10.548Z,11.36
2018-09-02T00:16:39.796Z,11.41
2018-09-02T00:19:09.160Z,11.23
2018-09-02T00:21:38.424Z,11.15
2018-09-02T00:24:07.660Z,11.14
2018-09-02T00:26:36.931Z,11.09
2018-09-02T00:29:06.327Z,11.42
2018-09-02T00:31:35.575Z,11.45
2018-09-02T00:34:04.849Z,11.49
2018-09-02T00:36:34.110Z,11.50
2018-09-02T00:39:03.416Z,11.41
2018-09-02T00:41:32.658Z,11.37
2018-09-02T00:44:01.920Z,11.39
2018-09-02T00:46:31.162Z,11.21
2018-09-02T00:49:00.427Z,11.40
2018-09-02T00:51:29.659Z,11.51
2018-09-02T00:53:58.898Z,11.42
2018-09-02T00:56:28.147Z,11.54
2018-09-02T00:58:57.404Z,11.34
2018-09-02T01:01:26.656Z,11.45
2018-09-02T01:03:55.911Z,11.36
2018-09-02T01:06:25.492Z,11.39
2018-09-02T01:08:55.999Z,11.23
2018-09-02T01:11:25.256Z,11.27
2018-09-02T01:13:54.512Z,11.09
2018-09-02T01:16:23.755Z,11.04
2018-09-02T01:18:53.090Z,11.06
2018-09-02T01:21:22.355Z,11.06
2018-09-02T01:23:51.591Z,11.04
2018-09-02T01:26:20.866Z,11.20
2018-09-02T01:28:50.112Z,11.28
2018-09-02T01:31:19.386Z,11.36
2018-09-02T01:33:48.759Z,11.36
2018-09-02T01:36:18.026Z,11.31
2018-09-02T01:38:47.305Z,11.25
2018-09-02T01:41:16.559Z,11.35
2018-09-02T01:43:45.860Z,11.24
2018-09-02T01:46:15.131Z,11.20
2018-09-02T01:48:44.383Z,11.15
2018-09-02T01:51:13.620Z,11.00
2018-09-02T01:53:42.853Z,10.99
2018-09-02T01:56:13.343Z,11.12
2018-09-02T01:58:42.595Z,11.20
2018-09-02T02:01:11.847Z,11.18
2018-09-02T02:03:41.088Z,11.10
2018-09-02T02:06:10.366Z,11.01
2018-09-02T02:08:39.606Z,11.05
2018-09-02T02:11:08.854Z,11.07
2018-09-02T02:13:38.092Z,11.27
2018-09-02T02:16:07.622Z,11.43
2018-09-02T02:18:36.847Z,11.27
2018-09-02T02:21:06.399Z,11.43
2018-09-02T02:23:35.636Z,11.37
2018-09-02T02:26:04.880Z,11.22
2018-09-02T02:28:34.131Z,11.36
2018-09-02T02:31:03.375Z,11.33
2018-09-02T02:33:32.622Z,11.36
2018-09-02T02:36:01.843Z,11.20
2018-09-02T02:38:31.078Z,11.38
2018-09-02T02:41:00.321Z,11.20
2018-09-02T02:43:29.559Z,11.24
2018-09-02T02:45:59.059Z,11.51
2018-09-02T02:48:31.220Z,11.35
2018-09-02T02:51:00.453Z,11.47
2018-09-02T02:53:29.725Z,11.50
2018-09-02T02:55:58.954Z,11.24
2018-09-02T02:58:28.200Z,11.08
2018-09-02T03:00:57.453Z,11.04
2018-09-02T03:03:26.703Z,11.01
2018-09-02T03:05:55.941Z,10.99
2018-09-02T03:08:25.191Z,11.29
2018-09-02T03:10:54.509Z,11.40
2018-09-02T03:13:23.668Z,11.50
2018-09-02T03:15:52.944Z,11.42
2018-09-02T03:18:22.184Z,11.21
2018-09-02T03:20:51.434Z,11.44
2018-09-02T03:23:20.656Z,11.48
2018-09-02T03:25:49.902Z,11.43
2018-09-02T03:28:19.275Z,11.26
2018-09-02T03:30:48.502Z,11.21
2018-09-02T03:33:17.735Z,11.19
2018-09-02T03:35:46.984Z,11.23
2018-09-02T03:38:16.256Z,11.15
2018-09-02T03:40:45.498Z,11.17
2018-09-02T03:43:14.771Z,11.17
2018-09-02T03:45:44.088Z,11.27
2018-09-02T03:48:13.325Z,11.11
2018-09-02T03:50:42.567Z,10.97
2018-09-02T03:53:11.822Z,10.95
2018-09-02T03:55:41.046Z,11.21
2018-09-02T03:58:11.117Z,11.17
2018-09-02T04:00:40.357Z,11.27
2018-09-02T04:03:09.610Z,11.21
2018-09-02T04:05:38.837Z,11.14
2018-09-02T04:08:08.129Z,11.04
2018-09-02T04:10:37.370Z,10.93
2018-09-02T04:13:06.618Z,10.90
2018-09-02T04:15:35.864Z,11.14
2018-09-02T04:18:05.287Z,11.38
2018-09-02T04:20:35.558Z,11.23
2018-09-02T04:23:05.784Z,11.14
2018-09-02T04:25:35.281Z,11.06
2018-09-02T04:28:04.535Z,11.39
2018-09-02T04:30:33.774Z,11.53
2018-09-02T04:33:03.027Z,11.58
2018-09-02T04:35:32.303Z,11.58
2018-09-02T04:38:01.551Z,11.58
2018-09-02T04:40:30.787Z,11.47
2018-09-02T04:43:00.030Z,11.41
2018-09-02T04:45:29.254Z,11.53
2018-09-02T04:47:58.501Z,11.45
2018-09-02T04:50:27.747Z,11.52
2018-09-02T04:52:56.987Z,11.41
2018-09-02T04:55:26.227Z,11.24
2018-09-02T04:57:55.483Z,11.44
2018-09-02T05:00:24.842Z,11.58
2018-09-02T05:02:53.964Z,11.55
2018-09-02T05:05:23.226Z,11.46
2018-09-02T05:07:52.459Z,11.60
2018-09-02T05:10:21.699Z,11.46
2018-09-02T05:12:50.950Z,11.30
2018-09-02T05:15:20.211Z,11.51
2018-09-02T05:17:49.449Z,11.56
2018-09-02T05:20:18.695Z,11.71
2018-09-02T05:22:47.922Z,11.66
2018-09-02T05:25:17.146Z,11.77
2018-09-02T05:27:46.443Z,11.58
2018-09-02T05:30:15.711Z,11.30
2018-09-02T05:32:44.960Z,11.28
2018-09-02T05:35:14.230Z,11.54
2018-09-02T05:37:43.467Z,11.80
2018-09-02T05:40:12.722Z,11.62
2018-09-02T05:42:41.946Z,11.59
2018-09-02T05:45:11.438Z,11.51
2018-09-02T05:47:40.685Z,11.59
2018-09-02T05:50:10.180Z,11.76
2018-09-02T05:52:39.408Z,11.87
2018-09-02T05:55:08.664Z,11.80
2018-09-02T05:57:37.953Z,11.87
2018-09-02T06:00:07.296Z,11.93
2018-09-02T06:02:36.585Z,11.88
2018-09-02T06:05:05.832Z,11.58
2018-09-02T06:07:35.079Z,11.49
2018-09-02T06:10:04.742Z,11.47
2018-09-02T06:12:34.016Z,11.44
2018-09-02T06:15:03.250Z,11.51
2018-09-02T06:17:32.503Z,11.62
2018-09-02T06:20:01.774Z,11.82
2018-09-02T06:22:31.023Z,11.84
2018-09-02T06:25:00.276Z,11.76
2018-09-02T06:27:29.517Z,11.80
2018-09-02T06:29:58.818Z,11.85
2018-09-02T06:32:28.020Z,11.71
2018-09-02T06:34:57.312Z,11.75
2018-09-02T06:37:26.552Z,11.66
2018-09-02T06:39:55.773Z,11.76
2018-09-02T06:42:25.097Z,11.73
2018-09-02T06:44:54.591Z,12.17
2018-09-02T06:47:25.075Z,12.32
2018-09-02T06:49:54.355Z,12.06
2018-09-02T06:52:23.615Z,12.12
2018-09-02T06:54:52.867Z,12.07
2018-09-02T06:57:22.111Z,12.15
2018-09-02T06:59:51.367Z,12.22
2018-09-02T07:02:20.604Z,12.42
2018-09-02T07:04:49.855Z,12.48
2018-09-02T07:07:19.350Z,12.28
2018-09-02T07:09:48.566Z,12.39
2018-09-02T07:12:17.800Z,12.67
2018-09-02T07:14:47.063Z,12.78
2018-09-02T07:17:16.327Z,12.90
2018-09-02T07:19:45.657Z,12.71
2018-09-02T07:22:14.858Z,12.53
2018-09-02T07:24:44.086Z,12.80
2018-09-02T07:27:13.318Z,12.79
2018-09-02T07:29:42.684Z,12.85
2018-09-02T07:32:11.932Z,12.75
2018-09-02T07:34:41.235Z,13.17
2018-09-02T07:37:10.468Z,13.13
2018-09-02T07:39:39.702Z,13.10
2018-09-02T07:42:08.934Z,13.37
2018-09-02T07:44:38.481Z,13.62
2018-09-02T07:47:07.819Z,13.55
2018-09-02T07:49:37.098Z,12.90
2018-09-02T07:52:06.359Z,12.90
2018-09-02T07:54:35.641Z,13.10
2018-09-02T07:57:04.823Z,13.33
2018-09-02T07:59:34.039Z,13.31
2018-09-02T08:02:03.434Z,13.06
2018-09-02T08:04:32.694Z,13.26
2018-09-02T08:07:01.918Z,13.33
2018-09-02T08:09:31.207Z,13.32
2018-09-02T08:12:00.471Z,13.51
2018-09-02T08:14:29.711Z,13.61
2018-09-02T08:16:58.949Z,13.20
2018-09-02T08:19:28.179Z,13.33
2018-09-02T08:21:57.405Z,13.30
2018-09-02T08:29:25.149Z,13.11
2018-09-02T08:31:54.381Z,13.17
2018-09-02T08:34:23.922Z,13.22
2018-09-02T08:36:53.194Z,13.41
2018-09-02T08:39:22.395Z,13.62
2018-09-02T08:41:51.700Z,13.70
2018-09-02T08:44:21.004Z,13.76
2018-09-02T08:46:50.177Z,13.61
2018-09-02T08:49:19.412Z,13.56
2018-09-02T08:51:49.115Z,13.14
2018-09-02T08:54:18.342Z,12.86
2018-09-02T08:56:47.570Z,12.73
2018-09-02T08:59:16.822Z,12.63
2018-09-02T09:01:46.182Z,12.63
2018-09-02T09:04:15.294Z,12.63
2018-09-02T09:06:44.535Z,12.55
2018-09-02T09:09:13.879Z,12.55
2018-09-02T09:11:43.014Z,12.44
2018-09-02T09:14:12.277Z,12.56
2018-09-02T09:16:41.592Z,12.56
2018-09-02T09:19:10.763Z,12.77
2018-09-02T09:21:41.324Z,12.84
2018-09-02T09:24:10.572Z,12.93
2018-09-02T09:26:39.751Z,13.44
2018-09-02T09:29:08.975Z,14.01
2018-09-02T09:31:38.219Z,14.08
2018-09-02T09:34:07.534Z,13.80
2018-09-02T09:36:36.770Z,13.75
2018-09-02T09:39:08.927Z,14.17
2018-09-02T09:41:38.167Z,14.57
2018-09-02T09:44:07.619Z,14.81
2018-09-02T09:46:36.859Z,15.08
2018-09-02T09:49:06.082Z,15.42
2018-09-02T09:51:35.321Z,15.85
2018-09-02T09:54:04.587Z,15.18
2018-09-02T09:56:34.752Z,14.96
2018-09-02T09:59:05.160Z,14.70
2018-09-02T10:01:34.394Z,14.60
2018-09-02T10:04:03.648Z,14.88
2018-09-02T10:06:32.981Z,14.73
2018-09-02T10:09:02.211Z,15.54
2018-09-02T10:11:31.440Z,16.18
2018-09-02T10:14:00.768Z,16.82
2018-09-02T10:16:30.090Z,17.49
2018-09-02T10:18:59.355Z,16.00
2018-09-02T10:21:28.599Z,15.74
2018-09-02T10:23:57.829Z,16.84
2018-09-02T10:26:27.074Z,18.88
2018-09-02T10:28:56.312Z,23.25
2018-09-02T10:31:25.595Z,23.32
2018-09-02T10:33:54.838Z,20.26
2018-09-02T10:36:24.210Z,17.84
2018-09-02T10:38:53.423Z,19.78
2018-09-02T10:41:22.702Z,18.40
2018-09-02T10:43:51.949Z,17.76
2018-09-02T10:46:21.168Z,17.47
2018-09-02T10:48:50.520Z,17.56
2018-09-02T10:51:19.825Z,16.73
2018-09-02T10:53:49.054Z,16.46
2018-09-02T10:56:18.289Z,16.59
2018-09-02T10:58:47.538Z,15.99
2018-09-02T11:01:16.822Z,16.20
2018-09-02T11:03:46.080Z,15.67
2018-09-02T11:06:15.329Z,15.54
2018-09-02T11:08:44.641Z,14.97
2018-09-02T11:11:13.866Z,14.69
2018-09-02T11:13:43.247Z,14.50
2018-09-02T11:16:12.347Z,14.49
2018-09-02T11:18:41.588Z,14.55
2018-09-02T11:21:10.842Z,14.51
2018-09-02T11:23:40.079Z,14.52
2018-09-02T11:26:09.354Z,14.47
2018-09-02T11:28:38.615Z,14.76
2018-09-02T11:31:08.125Z,15.21
2018-09-02T11:33:37.360Z,15.58
2018-09-02T11:36:06.923Z,15.74
2018-09-02T11:38:36.151Z,15.87
2018-09-02T11:41:05.403Z,15.94
2018-09-02T11:43:34.638Z,16.40
2018-09-02T11:46:03.891Z,16.66
2018-09-02T11:48:33.120Z,16.39
2018-09-02T11:51:02.401Z,16.21
2018-09-02T11:53:31.702Z,16.53
2018-09-02T11:56:00.942Z,16.60
2018-09-02T11:58:30.150Z,16.65
2018-09-02T12:00:59.391Z,16.66
2018-09-02T12:03:28.630Z,17.15
2018-09-02T12:05:57.859Z,17.58
2018-09-02T12:08:27.104Z,17.22
2018-09-02T12:10:56.320Z,17.42
2018-09-02T12:13:25.551Z,17.49
2018-09-02T12:15:54.788Z,17.40
2018-09-02T12:18:24.078Z,18.22
2018-09-02T12:20:53.293Z,18.08
2018-09-02T12:23:22.535Z,18.83
2018-09-02T12:25:51.746Z,19.57
2018-09-02T12:28:21.248Z,20.94
2018-09-02T12:30:50.466Z,21.30
2018-09-02T12:33:19.675Z,21.43
2018-09-02T12:35:48.919Z,21.08
2018-09-02T12:38:18.155Z,19.32
2018-09-02T12:40:47.387Z,18.98
2018-09-02T12:43:16.602Z,18.80
2018-09-02T12:45:47.083Z,19.04
2018-09-02T12:48:16.322Z,19.28
2018-09-02T12:50:45.564Z,19.23
2018-09-02T12:53:14.811Z,18.54
2018-09-02T12:55:44.075Z,17.84
2018-09-02T12:58:13.430Z,17.58
2018-09-02T13:00:42.679Z,17.22
2018-09-02T13:03:11.906Z,17.14
2018-09-02T13:05:41.236Z,17.09
2018-09-02T13:08:10.523Z,16.89
2018-09-02T13:10:39.755Z,16.54
2018-09-02T13:13:08.995Z,16.30
2018-09-02T13:15:38.223Z,16.17
2018-09-02T13:18:07.617Z,16.39
2018-09-02T13:20:37.890Z,16.40
2018-09-02T13:23:07.208Z,16.88
2018-09-02T13:25:36.442Z,17.44
2018-09-02T13:28:05.726Z,17.63
2018-09-02T13:30:34.960Z,17.87
2018-09-02T13:33:04.207Z,17.45
2018-09-02T13:35:33.434Z,17.44
2018-09-02T13:38:02.679Z,17.95
2018-09-02T13:40:31.920Z,18.11
2018-09-02T13:43:01.198Z,17.93
2018-09-02T13:45:30.389Z,17.82
2018-09-02T13:47:59.622Z,18.06
2018-09-02T13:50:28.860Z,18.16
2018-09-02T13:52:58.408Z,18.34
2018-09-02T13:55:27.653Z,18.04
2018-09-02T13:57:56.901Z,17.50
2018-09-02T14:00:26.143Z,17.97
2018-09-02T14:02:55.362Z,17.57
2018-09-02T14:05:24.594Z,17.66
2018-09-02T14:07:53.896Z,18.13
2018-09-02T14:10:23.066Z,18.49
2018-09-02T14:12:52.298Z,18.55
2018-09-02T14:15:21.536Z,18.81
2018-09-02T14:17:50.769Z,17.69
2018-09-02T14:20:20.008Z,17.63
2018-09-02T14:22:49.240Z,17.17
2018-09-02T14:25:18.462Z,16.92
2018-09-02T14:27:47.708Z,16.60
2018-09-02T14:30:16.935Z,16.71
2018-09-02T14:32:46.178Z,16.47
2018-09-02T14:35:16.279Z,16.35
2018-09-02T14:37:45.495Z,16.44
2018-09-02T14:40:14.751Z,16.34
2018-09-02T14:42:43.979Z,16.46
2018-09-02T14:45:13.196Z,16.15
2018-09-02T14:47:42.441Z,16.06
2018-09-02T14:50:11.688Z,16.05
2018-09-02T14:52:40.926Z,15.87
2018-09-02T14:55:10.171Z,15.87
2018-09-02T14:57:39.663Z,16.01
2018-09-02T15:00:08.920Z,15.91
2018-09-02T15:02:38.211Z,15.89
2018-09-02T15:05:07.878Z,15.90
2018-09-02T15:07:37.131Z,16.01
2018-09-02T15:10:06.397Z,16.17
2018-09-02T15:12:35.614Z,16.16
2018-09-02T15:15:04.879Z,16.39
2018-09-02T15:17:34.191Z,16.39
2018-09-02T15:20:03.430Z,16.33
2018-09-02T15:22:32.676Z,16.41
2018-09-02T15:25:01.932Z,16.40
2018-09-02T15:27:31.487Z,16.59
2018-09-02T15:30:00.724Z,16.48
2018-09-02T15:32:30.066Z,16.48
2018-09-02T15:34:59.318Z,16.49
2018-09-02T15:37:28.549Z,16.44
2018-09-02T15:39:57.792Z,16.30
2018-09-02T15:42:27.080Z,16.11
2018-09-02T15:44:56.340Z,16.08
2018-09-02T15:47:25.592Z,15.94
2018-09-02T15:49:54.812Z,15.88
2018-09-02T15:52:24.058Z,15.84
2018-09-02T15:54:53.309Z,15.81
2018-09-02T15:57:22.551Z,15.72
2018-09-02T15:59:51.798Z,15.61
2018-09-02T16:02:21.022Z,15.62
2018-09-02T16:04:50.308Z,15.63
2018-09-02T16:07:19.546Z,15.66
2018-09-02T16:09:48.778Z,15.70
2018-09-02T16:12:18.015Z,15.62
2018-09-02T16:14:47.257Z,15.64
2018-09-02T16:17:16.485Z,15.68
2018-09-02T16:19:45.735Z,15.62
2018-09-02T16:22:15.007Z,15.68
2018-09-02T16:24:44.230Z,15.78
2018-09-02T16:27:13.456Z,15.82
2018-09-02T16:29:42.787Z,15.89
2018-09-02T16:32:13.216Z,15.92
2018-09-02T16:34:42.526Z,15.86
2018-09-02T16:37:11.774Z,15.92
2018-09-02T16:39:41.016Z,15.92
2018-09-02T16:42:10.264Z,15.79
2018-09-02T16:44:39.507Z,15.80
2018-09-02T16:47:08.991Z,15.74
2018-09-02T16:49:38.198Z,15.73
2018-09-02T16:52:07.431Z,15.61
2018-09-02T16:54:36.663Z,15.50
2018-09-02T16:57:06.455Z,15.39
2018-09-02T16:59:35.689Z,15.40
2018-09-02T17:02:04.952Z,15.38
2018-09-02T17:04:35.903Z,15.35
2018-09-02T17:07:05.157Z,15.28
2018-09-02T17:09:35.624Z,15.19
2018-09-02T17:12:04.971Z,14.99
2018-09-02T17:14:34.107Z,14.82
2018-09-02T17:17:03.343Z,14.70
2018-09-02T17:19:35.647Z,14.63
2018-09-02T17:22:05.278Z,14.61
2018-09-02T17:24:34.518Z,14.64
2018-09-02T17:27:03.767Z,14.64
2018-09-02T17:29:32.999Z,14.57
2018-09-02T17:32:04.920Z,14.50
2018-09-02T17:34:34.167Z,14.41
2018-09-02T17:37:03.399Z,14.32
2018-09-02T17:39:32.638Z,14.22
2018-09-02T17:42:01.888Z,14.15
2018-09-02T17:44:31.122Z,14.08
2018-09-02T17:47:01.211Z,14.02
2018-09-02T17:49:30.434Z,14.00
2018-09-02T17:51:59.675Z,14.00
2018-09-02T17:54:28.928Z,14.02
2018-09-02T17:56:58.163Z,14.02
2018-09-02T17:59:27.392Z,14.04
2018-09-02T18:01:56.761Z,14.03
2018-09-02T18:04:25.907Z,14.03
2018-09-02T18:06:55.158Z,14.03
2018-09-02T18:09:24.439Z,14.06
2018-09-02T18:11:53.691Z,14.07
2018-09-02T18:14:22.927Z,14.09
2018-09-02T18:16:52.197Z,14.06
2018-09-02T18:19:21.426Z,14.03
2018-09-02T18:21:50.668Z,14.01
2018-09-02T18:24:19.905Z,13.99
2018-09-02T18:26:49.168Z,13.97
2018-09-02T18:29:18.418Z,13.97
2018-09-02T18:31:47.779Z,13.96
2018-09-02T18:34:17.060Z,13.95
2018-09-02T18:36:46.350Z,13.98
2018-09-02T18:39:15.609Z,13.98
2018-09-02T18:41:44.845Z,13.96
2018-09-02T18:44:14.079Z,13.97
2018-09-02T18:46:43.299Z,13.94
2018-09-02T18:49:12.546Z,13.95
2018-09-02T18:51:41.776Z,13.94
2018-09-02T18:54:11.025Z,13.96
2018-09-02T18:56:40.255Z,13.95
2018-09-02T18:59:09.504Z,13.93
2018-09-02T19:01:38.734Z,13.92
2018-09-02T19:04:07.991Z,13.93
2018-09-02T19:06:43.895Z,13.92
2018-09-02T19:09:13.175Z,13.93
2018-09-02T19:11:42.480Z,13.92
2018-09-02T19:14:11.769Z,13.93
2018-09-02T19:16:41.275Z,13.93
2018-09-02T19:19:10.728Z,13.93
2018-09-02T19:21:39.952Z,13.93
2018-09-02T19:24:09.278Z,13.94
2018-09-02T19:26:38.526Z,13.94
2018-09-02T19:29:07.783Z,13.93
2018-09-02T19:31:37.014Z,13.96
2018-09-02T19:34:06.283Z,13.93
2018-09-02T19:36:35.580Z,13.92
2018-09-02T19:39:07.771Z,13.91
2018-09-02T19:41:37.127Z,13.89
2018-09-02T19:44:21.437Z,13.90
2018-09-02T19:46:50.731Z,13.89
2018-09-02T19:49:19.964Z,13.87
2018-09-02T19:51:49.234Z,13.86
2018-09-02T19:54:18.469Z,13.84
2018-09-02T19:56:48.669Z,13.84
2018-09-02T19:59:18.018Z,13.81
2018-09-02T20:01:47.253Z,13.78
2018-09-02T20:04:16.558Z,13.78
2018-09-02T20:06:45.862Z,13.77
2018-09-02T20:09:15.373Z,13.88
2018-09-02T20:11:44.578Z,14.16
2018-09-02T20:14:13.886Z,13.99
2018-09-02T20:16:43.119Z,14.00
2018-09-02T20:19:12.394Z,13.89
2018-09-02T20:21:41.598Z,13.78
2018-09-02T20:24:10.847Z,13.65
2018-09-02T20:26:40.084Z,13.57
2018-09-02T20:29:09.332Z,13.50
2018-09-02T20:31:38.634Z,13.47
2018-09-02T20:34:08.096Z,13.36
2018-09-02T20:36:37.362Z,13.33
2018-09-02T20:39:08.950Z,13.35
2018-09-02T20:41:38.235Z,13.26
2018-09-02T20:44:07.931Z,13.26
2018-09-02T20:46:37.939Z,13.28
2018-09-02T20:49:07.488Z,13.28
2018-09-02T20:51:36.744Z,13.30
2018-09-02T20:54:06.046Z,13.37
2018-09-02T20:56:35.293Z,13.39
2018-09-02T20:59:04.520Z,13.25
2018-09-02T21:01:34.018Z,13.17
2018-09-02T21:04:03.264Z,13.10
2018-09-02T21:06:33.547Z,13.05
2018-09-02T21:09:02.831Z,13.08
2018-09-02T21:11:33.147Z,13.54
2018-09-02T21:14:02.394Z,13.62
2018-09-02T21:16:31.636Z,13.40
2018-09-02T21:19:00.868Z,13.34
2018-09-02T21:21:30.114Z,13.21
2018-09-02T21:23:59.419Z,13.06
2018-09-02T21:26:28.643Z,13.07
2018-09-02T21:28:57.890Z,13.05
2018-09-02T21:31:27.122Z,13.05
2018-09-02T21:33:56.557Z,13.07
2018-09-02T21:36:25.950Z,13.10
2018-09-02T21:38:55.212Z,13.11
2018-09-02T21:41:24.442Z,13.08
2018-09-02T21:43:53.674Z,13.07
2018-09-02T21:46:22.920Z,13.05
2018-09-02T21:48:52.175Z,13.08
2018-09-02T21:51:21.408Z,13.09
2018-09-02T21:53:50.679Z,13.12
2018-09-02T21:56:19.930Z,13.15
2018-09-02T21:58:49.167Z,13.16
2018-09-02T22:01:18.414Z,13.16
2018-09-02T22:03:47.654Z,13.17
2018-09-02T22:06:16.904Z,13.15
2018-09-02T22:08:46.130Z,13.14
2018-09-02T22:11:15.375Z,13.12
2018-09-02T22:13:44.602Z,13.14
2018-09-02T22:16:13.859Z,13.13
2018-09-02T22:18:43.094Z,13.13
2018-09-02T22:21:12.343Z,13.12
2018-09-02T22:23:41.651Z,13.14
2018-09-02T22:26:10.907Z,13.13
2018-09-02T22:28:40.142Z,13.12
2018-09-02T22:31:09.390Z,13.11
2018-09-02T22:33:38.787Z,13.09
2018-09-02T22:36:08.091Z,13.13
2018-09-02T22:38:37.326Z,13.14
2018-09-02T22:41:06.704Z,13.14
2018-09-02T22:43:35.942Z,13.10
2018-09-02T22:46:05.189Z,13.06
2018-09-02T22:48:34.439Z,13.02
2018-09-02T22:51:03.662Z,13.00
2018-09-02T22:53:32.901Z,12.97
2018-09-02T22:56:02.148Z,13.01
2018-09-02T23:03:28.436Z,13.03
2018-09-02T23:05:57.721Z,13.01
2018-09-02T23:08:26.975Z,13.01
2018-09-02T23:10:56.237Z,12.98
2018-09-02T23:13:25.483Z,12.93
2018-09-02T23:15:54.724Z,12.85
2018-09-02T23:18:23.954Z,12.84
2018-09-02T23:20:53.194Z,12.83
2018-09-02T23:23:22.459Z,12.81
2018-09-02T23:25:51.704Z,12.78
2018-09-02T23:28:20.938Z,12.74
2018-09-02T23:30:50.173Z,12.81
2018-09-02T23:33:19.420Z,12.81
2018-09-02T23:35:48.645Z,12.62
2018-09-02T23:38:18.149Z,12.54
2018-09-02T23:40:47.378Z,12.54
2018-09-02T23:43:16.646Z,12.56
2018-09-02T23:45:45.887Z,12.63
2018-09-02T23:48:15.132Z,12.59
2018-09-02T23:50:44.383Z,12.54
2018-09-02T23:53:13.631Z,12.83
2018-09-02T23:55:44.111Z,12.88
2018-09-02T23:58:13.355Z,12.97
